createdAt,value
2018-03-31T00:00:27.506Z,18.70
2018-03-31T00:02:54.491Z,18.70
2018-03-31T00:05:21.458Z,18.70
2018-03-31T00:07:48.437Z,18.70
2018-03-31T00:10:15.401Z,18.70
2018-03-31T00:12:42.393Z,18.70
2018-03-31T00:15:09.367Z,18.70
2018-03-31T00:17:36.346Z,18.60
2018-03-31T00:20:03.313Z,18.60
2018-03-31T00:22:31.078Z,18.60
2018-03-31T00:24:58.040Z,18.60
2018-03-31T00:27:25.013Z,18.60
2018-03-31T00:29:51.989Z,18.60
2018-03-31T00:32:18.967Z,18.60
2018-03-31T00:34:45.960Z,18.60
2018-03-31T00:37:13.696Z,18.60
2018-03-31T00:39:40.672Z,18.60
2018-03-31T00:42:08.419Z,18.50
2018-03-31T00:44:35.392Z,18.50
2018-03-31T00:47:03.127Z,18.50
2018-03-31T00:49:30.115Z,18.50
2018-03-31T00:51:57.846Z,18.50
2018-03-31T00:54:24.819Z,18.50
2018-03-31T00:56:51.794Z,18.50
2018-03-31T00:59:19.537Z,18.50
2018-03-31T01:01:46.508Z,18.50
2018-03-31T01:04:14.256Z,18.50
2018-03-31T01:06:41.989Z,18.50
2018-03-31T01:09:08.965Z,18.50
2018-03-31T01:11:35.993Z,18.50
2018-03-31T01:14:02.968Z,18.50
2018-03-31T01:16:29.944Z,18.50
2018-03-31T01:18:57.684Z,18.50
2018-03-31T01:21:24.660Z,18.50
2018-03-31T01:23:52.406Z,18.50
2018-03-31T01:26:19.376Z,18.40
2018-03-31T01:28:47.113Z,18.50
2018-03-31T01:31:14.084Z,18.40
2018-03-31T01:33:41.185Z,18.40
2018-03-31T01:36:08.165Z,18.40
2018-03-31T01:38:35.145Z,18.40
2018-03-31T01:41:02.106Z,18.40
2018-03-31T01:43:29.856Z,18.40
2018-03-31T01:45:58.344Z,18.40
2018-03-31T01:48:25.344Z,18.40
2018-03-31T01:50:52.323Z,18.40
2018-03-31T01:53:19.289Z,18.40
2018-03-31T01:55:46.267Z,18.40
2018-03-31T01:58:13.242Z,18.40
2018-03-31T02:00:40.205Z,18.40
2018-03-31T02:03:07.201Z,18.40
2018-03-31T02:05:34.168Z,18.40
2018-03-31T02:08:01.921Z,18.30
2018-03-31T02:10:28.904Z,18.40
2018-03-31T02:12:55.876Z,18.30
2018-03-31T02:15:22.865Z,18.40
2018-03-31T02:17:49.834Z,18.40
2018-03-31T02:20:17.573Z,18.30
2018-03-31T02:22:44.549Z,18.30
2018-03-31T02:25:11.535Z,18.40
2018-03-31T02:27:38.565Z,18.30
2018-03-31T02:30:06.324Z,18.30
2018-03-31T02:32:33.290Z,18.30
2018-03-31T02:35:00.274Z,18.30
2018-03-31T02:37:27.245Z,18.30
2018-03-31T02:39:54.217Z,18.30
2018-03-31T02:42:21.195Z,18.30
2018-03-31T02:44:48.170Z,18.30
2018-03-31T02:47:15.162Z,18.30
2018-03-31T02:49:42.141Z,18.30
2018-03-31T02:52:09.114Z,18.30
2018-03-31T02:54:36.094Z,18.30
2018-03-31T02:57:03.053Z,18.30
2018-03-31T02:59:30.092Z,18.30
2018-03-31T03:01:57.077Z,18.30
2018-03-31T03:04:24.047Z,18.30
2018-03-31T03:06:51.784Z,18.30
2018-03-31T03:09:18.773Z,18.20
2018-03-31T03:11:45.752Z,18.30
2018-03-31T03:14:12.745Z,18.20
2018-03-31T03:16:40.482Z,18.20
2018-03-31T03:19:07.469Z,18.20
2018-03-31T03:21:34.439Z,18.30
2018-03-31T03:24:02.184Z,18.20
2018-03-31T03:26:29.166Z,18.20
2018-03-31T03:28:56.130Z,18.20
2018-03-31T03:31:23.115Z,18.20
2018-03-31T03:33:50.093Z,18.20
2018-03-31T03:36:17.835Z,18.20
2018-03-31T03:38:44.796Z,18.20
2018-03-31T03:41:11.794Z,18.20
2018-03-31T03:43:38.772Z,18.20
2018-03-31T03:46:05.754Z,18.20
2018-03-31T03:48:32.721Z,18.20
2018-03-31T03:50:59.696Z,18.20
2018-03-31T03:53:26.676Z,18.20
2018-03-31T03:55:53.714Z,18.20
2018-03-31T03:58:20.697Z,18.20
2018-03-31T04:00:47.657Z,18.20
2018-03-31T04:03:16.157Z,18.10
2018-03-31T04:05:43.115Z,18.20
2018-03-31T04:08:10.859Z,18.20
2018-03-31T04:10:38.011Z,18.10
2018-03-31T04:13:04.984Z,18.20
2018-03-31T04:15:31.959Z,18.20
2018-03-31T04:17:58.940Z,18.20
2018-03-31T04:20:25.896Z,18.20
2018-03-31T04:22:52.872Z,18.20
2018-03-31T04:25:19.836Z,18.20
2018-03-31T04:27:46.812Z,18.10
2018-03-31T04:30:13.807Z,18.10
2018-03-31T04:32:40.776Z,18.10
2018-03-31T04:35:07.738Z,18.10
2018-03-31T04:37:34.715Z,18.10
2018-03-31T04:40:01.678Z,18.10
2018-03-31T04:42:28.661Z,18.10
2018-03-31T04:44:55.636Z,18.10
2018-03-31T04:47:22.613Z,18.10
2018-03-31T04:49:49.582Z,18.10
2018-03-31T04:52:16.578Z,18.10
2018-03-31T04:54:45.048Z,18.00
2018-03-31T04:57:12.018Z,18.10
2018-03-31T04:59:39.005Z,18.00
2018-03-31T05:02:05.993Z,18.10
2018-03-31T05:04:32.956Z,18.10
2018-03-31T05:06:59.939Z,18.10
2018-03-31T05:09:27.683Z,18.00
2018-03-31T05:11:54.683Z,18.00
2018-03-31T05:14:21.636Z,18.00
2018-03-31T05:16:48.605Z,18.00
2018-03-31T05:19:15.600Z,18.00
2018-03-31T05:21:42.570Z,18.00
2018-03-31T05:24:10.320Z,18.00
2018-03-31T05:26:37.301Z,18.00
2018-03-31T05:29:04.294Z,18.00
2018-03-31T05:31:31.270Z,18.00
2018-03-31T05:33:58.304Z,18.00
2018-03-31T05:36:25.277Z,18.00
2018-03-31T05:38:52.262Z,18.00
2018-03-31T05:41:19.247Z,17.90
2018-03-31T05:43:46.232Z,17.90
2018-03-31T05:46:13.220Z,17.90
2018-03-31T05:48:40.184Z,17.90
2018-03-31T05:51:07.190Z,17.90
2018-03-31T05:53:34.503Z,17.90
2018-03-31T05:56:01.560Z,17.90
2018-03-31T05:58:28.538Z,17.90
2018-03-31T06:03:32.999Z,17.90
2018-03-31T06:06:00.712Z,17.90
2018-03-31T06:08:27.673Z,17.90
2018-03-31T06:10:54.651Z,17.90
2018-03-31T06:13:21.649Z,17.80
2018-03-31T06:15:48.620Z,17.90
2018-03-31T06:18:15.605Z,17.90
2018-03-31T06:20:42.580Z,17.90
2018-03-31T06:23:20.763Z,17.90
2018-03-31T06:25:47.741Z,17.80
2018-03-31T06:28:15.465Z,17.90
2018-03-31T06:30:42.437Z,17.80
2018-03-31T06:33:09.457Z,17.90
2018-03-31T06:35:36.476Z,17.90
2018-03-31T06:38:03.508Z,17.90
2018-03-31T06:40:31.233Z,18.00
2018-03-31T06:42:58.238Z,18.00
2018-03-31T06:45:26.052Z,18.40
2018-03-31T06:47:53.033Z,18.40
2018-03-31T06:50:20.004Z,18.60
2018-03-31T06:52:47.769Z,19.00
2018-03-31T06:55:14.741Z,19.00
2018-03-31T06:57:41.712Z,18.90
2018-03-31T07:00:08.680Z,18.80
2018-03-31T07:02:35.682Z,18.90
2018-03-31T07:05:03.422Z,18.80
2018-03-31T07:07:30.404Z,18.80
2018-03-31T07:09:58.129Z,18.80
2018-03-31T07:12:25.097Z,18.80
2018-03-31T07:14:52.082Z,18.90
2018-03-31T07:17:19.123Z,18.80
2018-03-31T07:19:46.893Z,18.80
2018-03-31T07:22:13.909Z,18.80
2018-03-31T07:24:40.821Z,18.90
2018-03-31T07:27:07.844Z,18.80
2018-03-31T07:29:35.741Z,18.80
2018-03-31T07:32:02.721Z,18.80
2018-03-31T07:34:29.713Z,18.80
2018-03-31T07:36:57.448Z,18.70
2018-03-31T07:39:24.432Z,18.70
2018-03-31T07:41:52.181Z,19.00
2018-03-31T07:44:19.190Z,18.90
2018-03-31T07:46:46.277Z,18.90
2018-03-31T07:49:13.310Z,18.90
2018-03-31T07:51:40.450Z,18.90
2018-03-31T07:54:07.510Z,18.90
2018-03-31T07:56:34.505Z,18.90
2018-03-31T07:59:01.476Z,18.90
2018-03-31T08:01:28.456Z,18.90
2018-03-31T08:03:55.425Z,18.90
2018-03-31T08:06:22.436Z,19.00
2018-03-31T08:08:49.428Z,18.90
2018-03-31T08:11:16.576Z,18.90
2018-03-31T08:13:43.580Z,18.90
2018-03-31T08:16:10.565Z,18.80
2018-03-31T08:18:37.535Z,18.80
2018-03-31T08:21:04.513Z,18.80
2018-03-31T08:23:31.476Z,18.80
2018-03-31T08:25:59.228Z,18.80
2018-03-31T08:28:26.199Z,18.80
2018-03-31T08:30:53.933Z,18.80
2018-03-31T08:33:20.921Z,18.80
2018-03-31T08:35:48.660Z,18.80
2018-03-31T08:38:15.625Z,18.80
2018-03-31T08:40:43.363Z,18.80
2018-03-31T08:43:10.360Z,18.80
2018-03-31T08:45:37.331Z,18.80
2018-03-31T08:48:04.309Z,18.80
2018-03-31T08:50:31.280Z,18.80
2018-03-31T08:52:59.039Z,18.70
2018-03-31T08:55:26.080Z,18.70
2018-03-31T08:57:53.048Z,18.70
2018-03-31T09:00:20.036Z,18.70
2018-03-31T09:02:47.018Z,18.70
2018-03-31T09:05:13.993Z,18.70
2018-03-31T09:07:40.980Z,18.80
2018-03-31T09:10:08.737Z,18.80
2018-03-31T09:12:36.473Z,18.80
2018-03-31T09:15:03.492Z,18.70
2018-03-31T09:17:30.430Z,18.80
2018-03-31T09:19:58.154Z,18.80
2018-03-31T09:22:25.129Z,18.70
2018-03-31T09:24:52.934Z,18.90
2018-03-31T09:27:19.893Z,18.80
2018-03-31T09:29:46.865Z,18.90
2018-03-31T09:32:13.836Z,18.90
2018-03-31T09:34:40.810Z,19.00
2018-03-31T09:37:07.772Z,19.00
2018-03-31T09:39:34.749Z,19.00
2018-03-31T09:42:01.721Z,19.00
2018-03-31T09:44:28.681Z,19.00
2018-03-31T09:46:55.664Z,19.00
2018-03-31T09:49:23.394Z,19.00
2018-03-31T09:51:50.353Z,19.00
2018-03-31T09:54:18.097Z,19.10
2018-03-31T09:56:45.081Z,19.10
2018-03-31T09:59:12.043Z,19.10
2018-03-31T10:01:39.024Z,19.10
2018-03-31T10:04:05.993Z,19.10
2018-03-31T10:06:32.967Z,19.20
2018-03-31T10:08:59.937Z,19.10
2018-03-31T10:11:26.909Z,19.10
2018-03-31T10:13:54.641Z,19.10
2018-03-31T10:16:21.613Z,19.10
2018-03-31T10:18:48.581Z,19.20
2018-03-31T10:21:16.330Z,19.20
2018-03-31T10:23:43.316Z,19.30
2018-03-31T10:26:10.294Z,19.30
2018-03-31T10:28:37.270Z,19.30
2018-03-31T10:31:04.230Z,19.40
2018-03-31T10:33:31.965Z,19.40
2018-03-31T10:36:05.792Z,19.40
2018-03-31T10:38:32.770Z,19.40
2018-03-31T10:41:00.501Z,19.40
2018-03-31T10:43:27.466Z,19.40
2018-03-31T10:45:54.436Z,19.50
2018-03-31T10:48:22.168Z,19.50
2018-03-31T10:50:49.141Z,19.50
2018-03-31T10:53:16.117Z,19.50
2018-03-31T10:55:43.848Z,19.50
2018-03-31T10:58:10.824Z,19.50
2018-03-31T11:00:38.569Z,19.60
2018-03-31T11:03:06.373Z,19.70
2018-03-31T11:05:33.298Z,19.60
2018-03-31T11:08:00.256Z,19.60
2018-03-31T11:10:28.005Z,19.70
2018-03-31T11:12:55.020Z,19.70
2018-03-31T11:15:21.954Z,19.70
2018-03-31T11:17:48.921Z,19.60
2018-03-31T11:20:15.890Z,19.60
2018-03-31T11:22:42.872Z,19.50
2018-03-31T11:25:09.837Z,19.50
2018-03-31T11:27:37.576Z,19.60
2018-03-31T11:30:04.541Z,19.60
2018-03-31T11:32:31.516Z,19.70
2018-03-31T11:34:58.497Z,19.70
2018-03-31T11:37:25.474Z,19.70
2018-03-31T11:39:52.447Z,19.70
2018-03-31T11:42:19.405Z,19.80
2018-03-31T11:44:46.390Z,19.80
2018-03-31T11:47:13.449Z,19.80
2018-03-31T11:49:40.417Z,19.80
2018-03-31T11:52:07.381Z,19.80
2018-03-31T11:54:34.348Z,19.90
2018-03-31T11:57:01.316Z,19.90
2018-03-31T11:59:29.068Z,19.90
2018-03-31T12:01:56.037Z,19.90
2018-03-31T12:04:23.782Z,20.00
2018-03-31T12:06:50.841Z,19.90
2018-03-31T12:09:19.316Z,19.80
2018-03-31T12:11:47.797Z,19.80
2018-03-31T12:14:14.760Z,19.80
2018-03-31T12:16:41.758Z,19.70
2018-03-31T12:19:08.741Z,19.70
2018-03-31T12:21:35.717Z,19.70
2018-03-31T12:24:02.685Z,19.80
2018-03-31T12:26:30.425Z,19.80
2018-03-31T12:28:57.389Z,19.80
2018-03-31T12:31:25.120Z,19.80
2018-03-31T12:33:52.110Z,19.80
2018-03-31T12:36:19.087Z,19.80
2018-03-31T12:38:46.045Z,19.80
2018-03-31T12:41:13.016Z,19.80
2018-03-31T12:43:39.984Z,19.80
2018-03-31T12:46:06.961Z,19.90
2018-03-31T12:48:33.932Z,19.90
2018-03-31T12:51:01.675Z,19.90
2018-03-31T12:53:28.646Z,19.90
2018-03-31T12:55:56.378Z,19.80
2018-03-31T12:58:23.353Z,19.80
2018-03-31T13:00:51.081Z,19.70
2018-03-31T13:03:18.057Z,19.70
2018-03-31T13:05:45.029Z,19.70
2018-03-31T13:08:12.773Z,19.60
2018-03-31T13:10:41.251Z,19.50
2018-03-31T13:13:08.233Z,19.50
2018-03-31T13:15:35.972Z,19.50
2018-03-31T13:18:02.941Z,19.50
2018-03-31T13:20:29.924Z,19.50
2018-03-31T13:22:56.889Z,19.50
2018-03-31T13:25:23.870Z,19.40
2018-03-31T13:27:50.845Z,19.40
2018-03-31T13:30:17.811Z,19.40
2018-03-31T13:32:44.799Z,19.40
2018-03-31T13:35:11.790Z,19.40
2018-03-31T13:37:40.275Z,19.40
2018-03-31T13:40:07.244Z,19.40
2018-03-31T13:42:34.987Z,19.30
2018-03-31T13:45:01.957Z,19.30
2018-03-31T13:47:29.705Z,19.50
2018-03-31T13:49:56.694Z,19.40
2018-03-31T13:52:23.651Z,19.50
2018-03-31T13:54:50.628Z,19.50
2018-03-31T13:57:17.618Z,19.50
2018-03-31T13:59:44.589Z,19.50
2018-03-31T14:02:12.348Z,19.50
2018-03-31T14:04:39.324Z,19.50
2018-03-31T14:07:06.297Z,19.50
2018-03-31T14:09:33.283Z,19.50
2018-03-31T14:12:00.273Z,19.50
2018-03-31T14:14:27.256Z,19.50
2018-03-31T14:16:54.227Z,19.50
2018-03-31T14:19:21.207Z,19.60
2018-03-31T14:21:48.181Z,19.60
2018-03-31T14:24:15.919Z,19.50
2018-03-31T14:26:42.890Z,19.50
2018-03-31T14:29:10.671Z,19.60
2018-03-31T14:31:38.399Z,19.60
2018-03-31T14:34:05.361Z,19.60
2018-03-31T14:36:32.351Z,19.60
2018-03-31T14:38:59.332Z,19.70
2018-03-31T14:41:26.296Z,19.70
2018-03-31T14:43:53.282Z,19.70
2018-03-31T14:46:21.028Z,19.70
2018-03-31T14:48:48.009Z,19.70
2018-03-31T14:51:15.754Z,19.60
2018-03-31T14:53:43.492Z,19.60
2018-03-31T14:56:10.469Z,19.60
2018-03-31T14:58:37.448Z,19.70
2018-03-31T15:01:04.518Z,19.70
2018-03-31T15:03:31.536Z,19.70
2018-03-31T15:05:59.399Z,19.60
2018-03-31T15:08:26.447Z,19.60
2018-03-31T15:10:53.458Z,19.50
2018-03-31T15:13:20.435Z,19.50
2018-03-31T15:15:47.423Z,19.50
2018-03-31T15:18:14.395Z,19.60
2018-03-31T15:20:41.369Z,19.60
2018-03-31T15:23:08.353Z,19.60
2018-03-31T15:25:36.089Z,19.60
2018-03-31T15:28:03.072Z,19.60
2018-03-31T15:30:30.813Z,19.50
2018-03-31T15:32:57.852Z,19.50
2018-03-31T15:35:24.818Z,19.50
2018-03-31T15:37:51.869Z,19.50
2018-03-31T15:40:18.843Z,19.60
2018-03-31T15:42:45.814Z,19.50
2018-03-31T15:45:13.553Z,19.60
2018-03-31T15:47:40.524Z,19.50
2018-03-31T15:50:08.322Z,19.60
2018-03-31T15:52:35.289Z,19.60
2018-03-31T15:55:02.275Z,19.50
2018-03-31T15:57:29.288Z,19.60
2018-03-31T15:59:56.217Z,19.70
2018-03-31T16:02:23.201Z,19.70
2018-03-31T16:04:50.222Z,19.60
2018-03-31T16:07:17.212Z,19.60
2018-03-31T16:09:44.169Z,19.70
2018-03-31T16:12:11.148Z,19.60
2018-03-31T16:14:38.115Z,19.60
2018-03-31T16:17:05.861Z,19.70
2018-03-31T16:19:33.611Z,19.70
2018-03-31T16:22:00.783Z,19.70
2018-03-31T16:24:29.253Z,19.50
2018-03-31T16:26:56.240Z,19.50
2018-03-31T16:29:23.983Z,19.50
2018-03-31T16:31:50.969Z,19.40
2018-03-31T16:34:18.701Z,19.40
2018-03-31T16:36:45.689Z,19.40
2018-03-31T16:39:12.682Z,19.50
2018-03-31T16:41:39.681Z,19.40
2018-03-31T16:44:07.437Z,19.30
2018-03-31T16:46:34.414Z,19.20
2018-03-31T16:49:01.393Z,19.40
2018-03-31T16:51:28.375Z,19.40
2018-03-31T16:53:55.341Z,19.40
2018-03-31T16:56:22.331Z,19.40
2018-03-31T16:58:49.301Z,19.60
2018-03-31T17:01:16.281Z,19.60
2018-03-31T17:03:43.277Z,19.50
2018-03-31T17:06:10.261Z,19.60
2018-03-31T17:08:37.277Z,19.70
2018-03-31T17:11:04.268Z,19.60
2018-03-31T17:13:31.248Z,19.50
2018-03-31T17:15:58.224Z,19.60
2018-03-31T17:18:25.196Z,19.70
2018-03-31T17:20:52.173Z,19.60
2018-03-31T17:23:19.167Z,19.50
2018-03-31T17:25:46.181Z,19.60
2018-03-31T17:28:13.149Z,19.60
2018-03-31T17:30:40.137Z,19.60
2018-03-31T17:33:07.142Z,19.50
2018-03-31T17:35:34.125Z,19.60
2018-03-31T17:38:01.853Z,19.60
2018-03-31T17:40:28.832Z,19.60
2018-03-31T17:42:55.845Z,19.50
2018-03-31T17:45:22.799Z,19.60
2018-03-31T17:47:49.758Z,19.60
2018-03-31T17:50:16.728Z,19.60
2018-03-31T17:52:43.701Z,19.50
2018-03-31T17:55:10.680Z,19.60
2018-03-31T17:57:37.674Z,19.60
2018-03-31T18:00:04.648Z,19.50
2018-03-31T18:02:32.390Z,19.50
2018-03-31T18:04:59.365Z,19.50
2018-03-31T18:07:27.119Z,19.50
2018-03-31T18:09:54.092Z,19.50
2018-03-31T18:12:21.838Z,19.50
2018-03-31T18:14:49.617Z,19.60
2018-03-31T18:17:17.355Z,19.50
2018-03-31T18:19:44.329Z,19.50
2018-03-31T18:22:11.312Z,19.40
2018-03-31T18:24:38.293Z,19.50
2018-03-31T18:27:05.308Z,19.60
2018-03-31T18:29:33.039Z,19.40
2018-03-31T18:32:00.792Z,19.60
2018-03-31T18:34:27.791Z,19.60
2018-03-31T18:36:55.749Z,19.70
2018-03-31T18:39:23.481Z,19.70
2018-03-31T18:41:50.698Z,19.70
2018-03-31T18:44:17.751Z,19.80
2018-03-31T18:46:44.733Z,19.90
2018-03-31T18:49:12.528Z,19.80
2018-03-31T18:51:41.004Z,19.80
2018-03-31T18:54:07.993Z,19.90
2018-03-31T18:56:35.740Z,19.90
2018-03-31T18:59:02.721Z,19.90
2018-03-31T19:01:30.644Z,19.90
2018-03-31T19:03:57.670Z,19.90
2018-03-31T19:06:24.883Z,19.90
2018-03-31T19:08:51.892Z,19.90
2018-03-31T19:11:18.876Z,19.80
2018-03-31T19:13:46.270Z,19.90
2018-03-31T19:16:13.209Z,19.90
2018-03-31T19:18:40.212Z,19.90
2018-03-31T19:21:07.905Z,19.80
2018-03-31T19:23:35.504Z,19.90
2018-03-31T19:26:03.135Z,19.90
2018-03-31T19:28:30.725Z,19.90
2018-03-31T19:31:34.924Z,19.90
2018-03-31T19:35:07.318Z,20.00
2018-03-31T19:39:49.962Z,19.80
2018-03-31T19:42:18.707Z,19.70
2018-03-31T19:47:13.610Z,19.70
2018-03-31T19:49:41.277Z,19.60
2018-03-31T19:52:08.884Z,19.60
2018-03-31T19:54:36.508Z,19.70
2018-03-31T19:57:04.221Z,19.70
2018-03-31T19:59:32.045Z,19.60
2018-03-31T20:01:59.677Z,19.60
2018-03-31T20:04:28.866Z,19.60
2018-03-31T20:06:56.473Z,19.60
2018-03-31T20:09:24.100Z,19.60
2018-03-31T20:11:51.713Z,19.60
2018-03-31T20:14:19.342Z,19.70
2018-03-31T20:16:47.099Z,19.60
2018-03-31T20:19:14.848Z,19.60
2018-03-31T20:21:42.433Z,19.60
2018-03-31T20:24:10.085Z,19.50
2018-03-31T20:26:37.698Z,19.50
2018-03-31T20:29:06.084Z,19.90
2018-03-31T20:31:34.467Z,19.70
2018-03-31T20:34:02.134Z,19.60
2018-03-31T20:36:29.733Z,19.60
2018-03-31T20:38:57.437Z,19.50
2018-03-31T20:41:26.684Z,19.40
2018-03-31T20:43:55.273Z,19.40
2018-03-31T20:46:22.954Z,19.40
2018-03-31T20:48:50.653Z,19.40
2018-03-31T20:51:18.284Z,19.40
2018-03-31T20:53:46.013Z,19.40
2018-03-31T20:56:14.444Z,19.30
2018-03-31T20:58:42.314Z,19.30
2018-03-31T21:01:09.980Z,19.30
2018-03-31T21:03:37.758Z,19.30
2018-03-31T21:06:05.408Z,19.30
2018-03-31T21:08:33.020Z,19.30
2018-03-31T21:11:00.636Z,19.20
2018-03-31T21:13:28.245Z,19.20
2018-03-31T21:15:56.304Z,19.20
2018-03-31T21:18:23.889Z,19.20
2018-03-31T21:20:51.512Z,19.20
2018-03-31T21:23:19.110Z,19.20
2018-03-31T21:25:46.739Z,19.10
2018-03-31T21:28:14.329Z,19.10
2018-03-31T21:30:41.946Z,19.10
2018-03-31T21:33:09.559Z,19.10
2018-03-31T21:35:37.355Z,19.10
2018-03-31T21:38:04.918Z,19.10
2018-03-31T21:40:32.722Z,19.10
2018-03-31T21:43:00.380Z,19.10
2018-03-31T21:45:28.955Z,19.10
2018-03-31T21:47:56.713Z,19.00
2018-03-31T21:50:24.313Z,19.00
2018-03-31T21:52:52.827Z,19.00
2018-03-31T21:55:20.421Z,19.00
2018-03-31T21:57:48.037Z,19.00
2018-03-31T22:00:15.641Z,19.00
2018-03-31T22:02:43.269Z,19.00
2018-03-31T22:05:10.875Z,19.00
2018-03-31T22:07:39.985Z,18.90
2018-03-31T22:10:07.606Z,18.90
2018-03-31T22:12:35.204Z,18.90
2018-03-31T22:15:08.633Z,18.90
2018-03-31T22:17:37.001Z,18.90
2018-03-31T22:20:04.612Z,18.90
2018-03-31T22:22:32.244Z,18.90
2018-03-31T22:25:00.635Z,18.80
2018-03-31T22:27:29.011Z,18.90
2018-03-31T22:29:57.411Z,18.90
2018-03-31T22:32:26.784Z,18.80
2018-03-31T22:34:55.905Z,18.80
2018-03-31T22:37:24.275Z,18.80
2018-03-31T22:39:52.666Z,18.80
2018-03-31T22:42:20.340Z,18.80
2018-03-31T22:44:48.721Z,18.80
2018-03-31T22:47:17.101Z,18.80
2018-03-31T22:49:45.507Z,18.80
2018-03-31T22:52:13.121Z,18.70
2018-03-31T22:54:40.721Z,18.70
2018-03-31T22:57:09.101Z,18.80
2018-03-31T22:59:36.703Z,18.70
2018-03-31T23:02:04.433Z,18.70
2018-03-31T23:04:32.053Z,18.70
2018-03-31T23:06:59.649Z,18.70
2018-03-31T23:09:28.034Z,18.70
2018-03-31T23:11:56.409Z,18.70
2018-03-31T23:14:24.029Z,18.70
2018-03-31T23:16:51.645Z,18.70
2018-03-31T23:19:19.249Z,18.70
2018-03-31T23:21:47.604Z,18.70
2018-03-31T23:24:16.021Z,18.60
2018-03-31T23:26:44.379Z,18.60
2018-03-31T23:29:11.989Z,18.60
2018-03-31T23:31:39.596Z,18.60
2018-03-31T23:34:07.969Z,18.60
2018-03-31T23:36:35.576Z,18.60
2018-03-31T23:39:03.189Z,18.60
2018-03-31T23:41:30.792Z,18.60
2018-03-31T23:43:58.396Z,18.60
2018-03-31T23:46:26.001Z,18.60
2018-03-31T23:48:54.377Z,18.60
2018-03-31T23:51:22.757Z,18.60
2018-03-31T23:53:50.368Z,18.50
2018-03-31T23:56:17.989Z,18.60
2018-03-31T23:58:45.594Z,18.50
